createdAt,value
2024-05-09T00:02:02.861Z,100.00
2024-05-09T00:07:24.770Z,100.00
2024-05-09T00:12:46.644Z,100.00
2024-05-09T00:18:08.876Z,100.00
2024-05-09T00:23:31.007Z,100.00
2024-05-09T00:28:53.036Z,100.00
2024-05-09T00:34:15.009Z,100.00
2024-05-09T00:39:37.459Z,100.00
2024-05-09T00:44:59.369Z,100.00
2024-05-09T00:50:29.612Z,100.00
2024-05-09T00:55:58.193Z,100.00
2024-05-09T01:01:23.549Z,100.00
2024-05-09T01:06:45.464Z,100.00
2024-05-09T01:12:07.429Z,100.00
2024-05-09T01:17:29.720Z,100.00
2024-05-09T01:22:54.103Z,100.00
2024-05-09T01:28:16.309Z,100.00
2024-05-09T01:33:38.783Z,100.00
2024-05-09T01:39:01.001Z,100.00
2024-05-09T01:44:23.022Z,100.00
2024-05-09T01:49:45.068Z,100.00
2024-05-09T01:55:07.297Z,100.00
2024-05-09T02:00:38.159Z,100.00
2024-05-09T02:06:03.312Z,100.00
2024-05-09T02:11:25.453Z,100.00
2024-05-09T02:16:47.858Z,100.00
2024-05-09T02:22:09.762Z,100.00
2024-05-09T02:27:31.658Z,100.00
2024-05-09T02:32:53.696Z,100.00
2024-05-09T02:38:15.712Z,100.00
2024-05-09T02:43:37.605Z,100.00
2024-05-09T02:48:59.607Z,100.00
2024-05-09T02:54:21.553Z,100.00
2024-05-09T02:59:43.627Z,100.00
2024-05-09T03:05:05.747Z,100.00
2024-05-09T03:10:29.251Z,100.00
2024-05-09T03:15:59.792Z,100.00
2024-05-09T03:21:21.877Z,100.00
2024-05-09T03:26:43.849Z,100.00
2024-05-09T03:32:06.102Z,100.00
2024-05-09T03:37:28.218Z,100.00
2024-05-09T03:42:50.337Z,100.00
2024-05-09T03:48:12.759Z,100.00
2024-05-09T03:53:35.055Z,100.00
2024-05-09T03:58:57.816Z,100.00
2024-05-09T04:04:19.765Z,100.00
2024-05-09T04:09:41.719Z,100.00
2024-05-09T04:15:03.899Z,100.00
2024-05-09T04:20:36.004Z,100.00
2024-05-09T04:26:04.296Z,100.00
2024-05-09T04:31:26.444Z,100.00
2024-05-09T04:36:48.343Z,100.00
2024-05-09T04:42:10.316Z,100.00
2024-05-09T04:47:32.543Z,100.00
2024-05-09T04:52:54.583Z,100.00
2024-05-09T04:58:16.512Z,100.00
2024-05-09T05:03:38.761Z,100.00
2024-05-09T05:09:00.845Z,100.00
2024-05-09T05:14:22.853Z,100.00
2024-05-09T05:19:45.052Z,100.00
2024-05-09T05:25:07.208Z,100.00
2024-05-09T05:30:34.308Z,100.00
2024-05-09T05:35:57.317Z,100.00
2024-05-09T05:41:19.315Z,100.00
2024-05-09T05:46:41.465Z,100.00
2024-05-09T05:52:03.489Z,100.00
2024-05-09T05:57:25.397Z,100.00
2024-05-09T06:02:47.376Z,100.00
2024-05-09T06:08:09.514Z,100.00
2024-05-09T06:13:31.580Z,100.00
2024-05-09T06:18:53.661Z,100.00
2024-05-09T06:24:15.818Z,100.00
2024-05-09T06:29:40.658Z,100.00
2024-05-09T06:35:02.648Z,100.00
2024-05-09T06:40:29.429Z,100.00
2024-05-09T06:45:57.394Z,100.00
2024-05-09T06:51:19.339Z,100.00
2024-05-09T06:56:41.346Z,97.84
2024-05-09T07:02:06.962Z,93.49
2024-05-09T07:07:28.910Z,90.98
2024-05-09T07:12:50.774Z,89.34
2024-05-09T07:18:17.187Z,87.34
2024-05-09T07:23:41.004Z,84.42
2024-05-09T07:29:03.864Z,80.25
2024-05-09T07:34:25.906Z,77.33
2024-05-09T07:39:47.975Z,72.64
2024-05-09T07:45:24.180Z,71.48
2024-05-09T07:56:17.680Z,66.35
2024-05-09T08:01:40.072Z,63.57
2024-05-09T08:07:02.050Z,63.06
2024-05-09T08:12:23.998Z,62.81
2024-05-09T08:17:45.942Z,61.77
2024-05-09T08:23:08.143Z,61.15
2024-05-09T08:28:30.137Z,58.74
2024-05-09T08:33:52.347Z,56.91
2024-05-09T08:39:14.441Z,56.99
2024-05-09T08:44:37.148Z,57.03
2024-05-09T08:50:02.137Z,54.53
2024-05-09T08:55:25.468Z,55.24
2024-05-09T09:00:47.952Z,51.45
2024-05-09T09:06:14.580Z,51.89
2024-05-09T09:11:36.531Z,51.55
2024-05-09T09:16:58.471Z,50.79
2024-05-09T09:22:21.701Z,48.35
2024-05-09T09:27:44.000Z,49.88
2024-05-09T09:33:06.766Z,46.54
2024-05-09T09:38:31.245Z,44.28
2024-05-09T09:43:53.979Z,40.17
2024-05-09T09:49:17.105Z,40.06
2024-05-09T09:54:39.637Z,39.16
2024-05-09T10:00:01.827Z,40.35
2024-05-09T10:05:24.431Z,38.58
2024-05-09T10:10:47.952Z,37.43
2024-05-09T10:16:11.230Z,35.86
2024-05-09T10:21:33.403Z,34.89
2024-05-09T10:26:56.049Z,35.94
2024-05-09T10:32:26.742Z,37.82
2024-05-09T10:37:50.710Z,37.18
2024-05-09T10:43:19.631Z,34.48
2024-05-09T10:48:43.210Z,33.23
2024-05-09T10:54:05.206Z,32.51
2024-05-09T10:59:33.306Z,31.88
2024-05-09T11:04:55.386Z,32.74
2024-05-09T11:10:24.923Z,33.33
2024-05-09T11:15:53.905Z,32.85
2024-05-09T11:21:15.832Z,31.60
2024-05-09T11:26:40.987Z,30.34
2024-05-09T11:32:03.020Z,29.92
2024-05-09T11:37:25.103Z,29.87
2024-05-09T11:42:48.754Z,32.09
2024-05-09T11:48:12.816Z,33.60
2024-05-09T11:53:34.737Z,34.73
2024-05-09T11:58:56.657Z,31.24
2024-05-09T12:04:18.938Z,33.56
2024-05-09T12:09:41.468Z,33.15
2024-05-09T12:15:03.570Z,32.57
2024-05-09T12:20:33.065Z,32.07
2024-05-09T12:25:59.173Z,27.92
2024-05-09T12:31:21.126Z,28.19
2024-05-09T12:36:43.494Z,30.42
2024-05-09T12:42:05.610Z,28.75
2024-05-09T12:47:27.840Z,27.42
2024-05-09T12:52:49.837Z,28.74
2024-05-09T12:58:12.250Z,31.91
2024-05-09T13:03:34.463Z,29.90
2024-05-09T13:08:56.675Z,29.40
2024-05-09T13:14:18.608Z,24.62
2024-05-09T13:19:40.479Z,23.02
2024-05-09T13:25:02.494Z,21.78
2024-05-09T13:30:30.046Z,20.86
2024-05-09T13:36:00.425Z,23.64
2024-05-09T13:41:22.450Z,24.48
2024-05-09T13:46:44.485Z,26.54
2024-05-09T13:52:06.602Z,25.79
2024-05-09T13:57:28.695Z,27.24
2024-05-09T14:02:50.634Z,23.78
2024-05-09T14:08:15.127Z,24.53
2024-05-09T14:13:37.156Z,22.31
2024-05-09T14:18:59.719Z,19.24
2024-05-09T14:24:21.685Z,18.77
2024-05-09T14:29:43.647Z,19.09
2024-05-09T14:35:06.057Z,20.59
2024-05-09T14:40:38.797Z,20.17
2024-05-09T14:46:04.875Z,21.98
2024-05-09T14:51:26.774Z,19.49
2024-05-09T14:56:48.897Z,20.58
2024-05-09T15:02:11.100Z,19.43
2024-05-09T15:07:34.085Z,20.53
2024-05-09T15:12:56.024Z,22.24
2024-05-09T15:18:18.284Z,24.25
2024-05-09T15:23:40.498Z,24.27
2024-05-09T15:29:02.537Z,25.32
2024-05-09T15:34:24.477Z,23.84
2024-05-09T15:39:46.388Z,23.13
2024-05-09T15:45:08.263Z,25.09
2024-05-09T15:50:37.127Z,28.96
2024-05-09T15:56:02.366Z,29.29
2024-05-09T16:01:24.529Z,29.39
2024-05-09T16:06:47.977Z,30.00
2024-05-09T16:12:09.903Z,30.68
2024-05-09T16:17:31.956Z,31.52
2024-05-09T16:22:54.379Z,31.87
2024-05-09T16:28:18.672Z,32.09
2024-05-09T16:33:40.985Z,32.50
2024-05-09T16:39:03.112Z,33.35
2024-05-09T16:44:25.108Z,33.75
2024-05-09T16:49:47.225Z,33.84
2024-05-09T16:55:09.207Z,33.54
2024-05-09T17:00:39.514Z,34.06
2024-05-09T17:06:06.330Z,33.89
2024-05-09T17:11:28.242Z,34.63
2024-05-09T17:16:50.238Z,34.58
2024-05-09T17:22:12.566Z,36.37
2024-05-09T17:27:34.729Z,36.93
2024-05-09T17:32:56.731Z,36.40
2024-05-09T17:38:19.483Z,36.53
2024-05-09T17:43:41.399Z,36.55
2024-05-09T17:49:03.821Z,37.23
2024-05-09T17:54:25.900Z,37.92
2024-05-09T17:59:49.903Z,37.68
2024-05-09T18:05:11.886Z,38.48
2024-05-09T18:10:37.962Z,38.93
2024-05-09T18:16:02.014Z,38.75
2024-05-09T18:21:24.421Z,39.29
2024-05-09T18:26:46.426Z,39.76
2024-05-09T18:32:08.590Z,40.37
2024-05-09T18:37:30.586Z,40.75
2024-05-09T18:42:52.629Z,41.79
2024-05-09T18:48:17.403Z,41.55
2024-05-09T18:53:39.874Z,42.27
2024-05-09T18:59:03.387Z,42.61
2024-05-09T19:04:25.601Z,44.18
2024-05-09T19:09:47.887Z,45.34
2024-05-09T19:15:09.826Z,47.18
2024-05-09T19:20:34.663Z,49.32
2024-05-09T19:25:58.078Z,50.29
2024-05-09T19:31:20.072Z,51.92
2024-05-09T19:36:42.216Z,52.55
2024-05-09T19:42:05.145Z,53.48
2024-05-09T19:47:27.306Z,54.12
2024-05-09T19:52:49.361Z,55.46
2024-05-09T19:58:12.483Z,55.47
2024-05-09T20:03:37.413Z,56.46
2024-05-09T20:08:59.650Z,57.29
2024-05-09T20:14:22.334Z,56.76
2024-05-09T20:19:44.470Z,57.77
2024-05-09T20:25:07.018Z,58.82
2024-05-09T20:30:32.792Z,59.20
2024-05-09T20:36:01.606Z,60.20
2024-05-09T20:41:24.123Z,60.78
2024-05-09T20:46:46.072Z,61.72
2024-05-09T20:52:08.205Z,62.36
2024-05-09T20:57:30.509Z,62.05
2024-05-09T21:02:52.544Z,60.38
2024-05-09T21:08:14.560Z,61.92
2024-05-09T21:13:36.490Z,63.09
2024-05-09T21:18:58.412Z,63.72
2024-05-09T21:24:20.349Z,64.35
2024-05-09T21:29:42.394Z,64.82
2024-05-09T21:35:05.285Z,65.17
2024-05-09T21:40:33.926Z,64.71
2024-05-09T21:45:57.781Z,64.94
2024-05-09T21:51:19.720Z,65.05
2024-05-09T21:56:41.881Z,65.15
2024-05-09T22:02:04.342Z,66.02
2024-05-09T22:07:26.457Z,66.41
2024-05-09T22:12:48.446Z,67.34
2024-05-09T22:18:11.340Z,69.12
2024-05-09T22:23:33.762Z,69.44
2024-05-09T22:28:55.706Z,70.47
2024-05-09T22:34:17.730Z,72.27
2024-05-09T22:39:39.749Z,73.42
2024-05-09T22:45:01.723Z,75.13
2024-05-09T22:50:26.992Z,76.38
2024-05-09T22:55:53.484Z,76.22
2024-05-09T23:01:15.962Z,76.94
2024-05-09T23:06:40.874Z,77.43
2024-05-09T23:12:02.891Z,77.53
2024-05-09T23:17:24.847Z,79.37
2024-05-09T23:22:46.755Z,80.26
2024-05-09T23:28:09.338Z,79.57
2024-05-09T23:33:31.593Z,81.76
2024-05-09T23:38:53.532Z,83.29
2024-05-09T23:44:15.442Z,83.51
2024-05-09T23:49:37.381Z,84.41
2024-05-09T23:54:59.655Z,85.34
